sensor_id;sensor_type;location;lat;lon;timestamp;P1;durP1;ratioP1;P2;durP2;ratioP2
59458;SDS011;45269;43.568;22.244;2023-07-31T00:01:22;13.32;;;12.20;;
59458;SDS011;45269;43.568;22.244;2023-07-31T00:03:47;14.90;;;13.70;;
59458;SDS011;45269;43.568;22.244;2023-07-31T00:06:12;17.48;;;13.40;;
59458;SDS011;45269;43.568;22.244;2023-07-31T00:08:38;13.85;;;12.55;;
59458;SDS011;45269;43.568;22.244;2023-07-31T00:11:03;13.48;;;12.07;;
59458;SDS011;45269;43.568;22.244;2023-07-31T00:13:28;12.27;;;11.07;;
59458;SDS011;45269;43.568;22.244;2023-07-31T00:15:54;12.60;;;11.50;;
59458;SDS011;45269;43.568;22.244;2023-07-31T00:18:19;13.82;;;12.57;;
59458;SDS011;45269;43.568;22.244;2023-07-31T00:20:45;14.60;;;13.07;;
59458;SDS011;45269;43.568;22.244;2023-07-31T00:23:10;16.30;;;13.40;;
59458;SDS011;45269;43.568;22.244;2023-07-31T00:25:35;16.13;;;14.70;;
59458;SDS011;45269;43.568;22.244;2023-07-31T00:28:01;17.00;;;15.25;;
59458;SDS011;45269;43.568;22.244;2023-07-31T00:30:26;19.20;;;17.45;;
59458;SDS011;45269;43.568;22.244;2023-07-31T00:32:52;18.58;;;16.88;;
59458;SDS011;45269;43.568;22.244;2023-07-31T00:35:17;19.55;;;17.95;;
59458;SDS011;45269;43.568;22.244;2023-07-31T00:37:42;20.15;;;18.30;;
59458;SDS011;45269;43.568;22.244;2023-07-31T00:40:08;21.48;;;19.52;;
59458;SDS011;45269;43.568;22.244;2023-07-31T00:42:33;22.25;;;19.80;;
59458;SDS011;45269;43.568;22.244;2023-07-31T00:44:59;21.08;;;19.48;;
59458;SDS011;45269;43.568;22.244;2023-07-31T00:47:24;20.45;;;18.70;;
59458;SDS011;45269;43.568;22.244;2023-07-31T00:49:50;20.50;;;18.58;;
59458;SDS011;45269;43.568;22.244;2023-07-31T00:52:15;19.63;;;17.77;;
59458;SDS011;45269;43.568;22.244;2023-07-31T00:54:41;21.45;;;19.15;;
59458;SDS011;45269;43.568;22.244;2023-07-31T00:57:06;20.75;;;18.65;;
59458;SDS011;45269;43.568;22.244;2023-07-31T00:59:33;22.58;;;20.45;;
59458;SDS011;45269;43.568;22.244;2023-07-31T01:01:58;21.88;;;19.63;;
59458;SDS011;45269;43.568;22.244;2023-07-31T01:04:24;23.30;;;21.00;;
59458;SDS011;45269;43.568;22.244;2023-07-31T01:09:49;23.63;;;21.40;;
59458;SDS011;45269;43.568;22.244;2023-07-31T01:12:18;23.33;;;21.02;;
59458;SDS011;45269;43.568;22.244;2023-07-31T01:14:52;24.35;;;22.15;;
59458;SDS011;45269;43.568;22.244;2023-07-31T01:17:17;25.25;;;19.63;;
59458;SDS011;45269;43.568;22.244;2023-07-31T01:19:42;24.23;;;22.02;;
59458;SDS011;45269;43.568;22.244;2023-07-31T01:25:29;23.23;;;21.30;;
59458;SDS011;45269;43.568;22.244;2023-07-31T01:27:29;24.23;;;22.03;;
59458;SDS011;45269;43.568;22.244;2023-07-31T01:29:56;25.38;;;23.05;;
59458;SDS011;45269;43.568;22.244;2023-07-31T01:32:24;25.27;;;23.08;;
59458;SDS011;45269;43.568;22.244;2023-07-31T01:34:50;22.98;;;20.65;;
59458;SDS011;45269;43.568;22.244;2023-07-31T01:37:16;25.02;;;22.42;;
59458;SDS011;45269;43.568;22.244;2023-07-31T01:39:41;23.10;;;21.00;;
59458;SDS011;45269;43.568;22.244;2023-07-31T01:42:07;23.13;;;20.98;;
59458;SDS011;45269;43.568;22.244;2023-07-31T01:44:32;23.70;;;21.25;;
59458;SDS011;45269;43.568;22.244;2023-07-31T01:46:58;22.35;;;20.33;;
59458;SDS011;45269;43.568;22.244;2023-07-31T01:49:25;23.27;;;20.60;;
59458;SDS011;45269;43.568;22.244;2023-07-31T01:51:50;21.55;;;19.73;;
59458;SDS011;45269;43.568;22.244;2023-07-31T01:54:15;21.83;;;19.80;;
59458;SDS011;45269;43.568;22.244;2023-07-31T01:56:41;21.25;;;19.35;;
59458;SDS011;45269;43.568;22.244;2023-07-31T01:59:06;20.15;;;18.45;;
59458;SDS011;45269;43.568;22.244;2023-07-31T02:01:31;20.27;;;18.17;;
59458;SDS011;45269;43.568;22.244;2023-07-31T02:03:57;22.10;;;20.10;;
59458;SDS011;45269;43.568;22.244;2023-07-31T02:06:22;24.25;;;21.95;;
59458;SDS011;45269;43.568;22.244;2023-07-31T02:08:48;22.70;;;20.75;;
59458;SDS011;45269;43.568;22.244;2023-07-31T02:11:14;23.27;;;21.15;;
59458;SDS011;45269;43.568;22.244;2023-07-31T02:13:39;25.45;;;22.83;;
59458;SDS011;45269;43.568;22.244;2023-07-31T02:16:04;26.17;;;23.17;;
59458;SDS011;45269;43.568;22.244;2023-07-31T02:18:30;24.88;;;22.30;;
59458;SDS011;45269;43.568;22.244;2023-07-31T02:20:55;24.48;;;22.02;;
59458;SDS011;45269;43.568;22.244;2023-07-31T02:23:21;23.85;;;21.58;;
59458;SDS011;45269;43.568;22.244;2023-07-31T02:25:46;25.05;;;22.67;;
59458;SDS011;45269;43.568;22.244;2023-07-31T02:28:12;25.73;;;23.17;;
59458;SDS011;45269;43.568;22.244;2023-07-31T02:30:37;25.13;;;22.90;;
59458;SDS011;45269;43.568;22.244;2023-07-31T02:33:03;26.23;;;23.55;;
59458;SDS011;45269;43.568;22.244;2023-07-31T02:35:29;25.90;;;23.38;;
59458;SDS011;45269;43.568;22.244;2023-07-31T02:37:54;25.55;;;23.10;;
59458;SDS011;45269;43.568;22.244;2023-07-31T02:40:20;25.52;;;23.15;;
59458;SDS011;45269;43.568;22.244;2023-07-31T02:42:45;24.80;;;22.35;;
59458;SDS011;45269;43.568;22.244;2023-07-31T02:45:10;22.40;;;20.23;;
59458;SDS011;45269;43.568;22.244;2023-07-31T02:47:36;21.52;;;19.40;;
59458;SDS011;45269;43.568;22.244;2023-07-31T02:50:02;19.05;;;17.40;;
59458;SDS011;45269;43.568;22.244;2023-07-31T02:52:27;17.10;;;15.65;;
59458;SDS011;45269;43.568;22.244;2023-07-31T02:54:52;16.85;;;15.25;;
59458;SDS011;45269;43.568;22.244;2023-07-31T02:57:18;18.02;;;16.45;;
59458;SDS011;45269;43.568;22.244;2023-07-31T02:59:43;18.25;;;16.55;;
59458;SDS011;45269;43.568;22.244;2023-07-31T03:02:08;17.77;;;16.17;;
59458;SDS011;45269;43.568;22.244;2023-07-31T03:04:33;17.98;;;15.98;;
59458;SDS011;45269;43.568;22.244;2023-07-31T03:06:59;16.25;;;14.95;;
59458;SDS011;45269;43.568;22.244;2023-07-31T03:09:24;16.30;;;14.90;;
59458;SDS011;45269;43.568;22.244;2023-07-31T03:11:49;15.90;;;14.48;;
59458;SDS011;45269;43.568;22.244;2023-07-31T03:14:15;15.00;;;13.70;;
59458;SDS011;45269;43.568;22.244;2023-07-31T03:16:40;16.10;;;14.48;;
59458;SDS011;45269;43.568;22.244;2023-07-31T03:19:05;15.18;;;13.80;;
59458;SDS011;45269;43.568;22.244;2023-07-31T03:21:31;13.52;;;12.35;;
59458;SDS011;45269;43.568;22.244;2023-07-31T03:23:56;14.93;;;12.10;;
59458;SDS011;45269;43.568;22.244;2023-07-31T03:26:21;13.60;;;12.32;;
59458;SDS011;45269;43.568;22.244;2023-07-31T03:28:47;12.23;;;11.27;;
59458;SDS011;45269;43.568;22.244;2023-07-31T03:31:12;11.95;;;10.93;;
59458;SDS011;45269;43.568;22.244;2023-07-31T03:33:37;11.80;;;10.63;;
59458;SDS011;45269;43.568;22.244;2023-07-31T03:36:03;11.93;;;10.93;;
59458;SDS011;45269;43.568;22.244;2023-07-31T03:38:28;10.27;;;9.38;;
59458;SDS011;45269;43.568;22.244;2023-07-31T03:40:54;10.90;;;9.98;;
59458;SDS011;45269;43.568;22.244;2023-07-31T03:43:19;10.02;;;9.13;;
59458;SDS011;45269;43.568;22.244;2023-07-31T03:45:45;9.45;;;8.55;;
59458;SDS011;45269;43.568;22.244;2023-07-31T03:48:10;11.20;;;10.20;;
59458;SDS011;45269;43.568;22.244;2023-07-31T03:50:35;11.80;;;10.82;;
59458;SDS011;45269;43.568;22.244;2023-07-31T03:53:01;14.40;;;12.63;;
59458;SDS011;45269;43.568;22.244;2023-07-31T03:55:26;15.27;;;13.02;;
59458;SDS011;45269;43.568;22.244;2023-07-31T03:57:51;13.85;;;12.50;;
59458;SDS011;45269;43.568;22.244;2023-07-31T04:00:17;13.90;;;12.77;;
59458;SDS011;45269;43.568;22.244;2023-07-31T04:02:42;12.60;;;11.57;;
59458;SDS011;45269;43.568;22.244;2023-07-31T04:05:07;12.07;;;11.02;;
59458;SDS011;45269;43.568;22.244;2023-07-31T04:07:33;13.60;;;12.20;;
59458;SDS011;45269;43.568;22.244;2023-07-31T04:09:59;13.00;;;11.80;;
59458;SDS011;45269;43.568;22.244;2023-07-31T04:12:24;12.82;;;11.68;;
59458;SDS011;45269;43.568;22.244;2023-07-31T04:14:50;12.30;;;11.10;;
59458;SDS011;45269;43.568;22.244;2023-07-31T04:17:15;16.40;;;11.07;;
59458;SDS011;45269;43.568;22.244;2023-07-31T04:19:40;11.63;;;10.63;;
59458;SDS011;45269;43.568;22.244;2023-07-31T04:22:06;11.30;;;10.10;;
59458;SDS011;45269;43.568;22.244;2023-07-31T04:24:31;10.90;;;9.98;;
59458;SDS011;45269;43.568;22.244;2023-07-31T04:26:56;11.85;;;9.05;;
59458;SDS011;45269;43.568;22.244;2023-07-31T04:29:22;9.57;;;8.77;;
59458;SDS011;45269;43.568;22.244;2023-07-31T04:31:47;10.32;;;9.00;;
59458;SDS011;45269;43.568;22.244;2023-07-31T04:34:13;11.75;;;8.77;;
59458;SDS011;45269;43.568;22.244;2023-07-31T04:36:38;14.32;;;7.80;;
59458;SDS011;45269;43.568;22.244;2023-07-31T04:39:03;9.38;;;8.52;;
59458;SDS011;45269;43.568;22.244;2023-07-31T04:41:29;9.57;;;8.68;;
59458;SDS011;45269;43.568;22.244;2023-07-31T04:43:54;9.00;;;8.20;;
59458;SDS011;45269;43.568;22.244;2023-07-31T04:46:20;11.88;;;8.32;;
59458;SDS011;45269;43.568;22.244;2023-07-31T04:48:45;9.23;;;8.43;;
59458;SDS011;45269;43.568;22.244;2023-07-31T04:51:12;9.10;;;8.15;;
59458;SDS011;45269;43.568;22.244;2023-07-31T04:53:37;9.23;;;8.10;;
59458;SDS011;45269;43.568;22.244;2023-07-31T04:56:02;10.05;;;7.45;;
59458;SDS011;45269;43.568;22.244;2023-07-31T04:58:28;9.52;;;7.30;;
59458;SDS011;45269;43.568;22.244;2023-07-31T05:00:53;8.85;;;8.00;;
59458;SDS011;45269;43.568;22.244;2023-07-31T05:03:18;8.70;;;7.47;;
59458;SDS011;45269;43.568;22.244;2023-07-31T05:05:44;8.80;;;8.00;;
59458;SDS011;45269;43.568;22.244;2023-07-31T05:08:09;8.80;;;7.78;;
59458;SDS011;45269;43.568;22.244;2023-07-31T05:10:34;10.95;;;8.10;;
59458;SDS011;45269;43.568;22.244;2023-07-31T05:13:00;8.15;;;7.45;;
59458;SDS011;45269;43.568;22.244;2023-07-31T05:15:25;8.25;;;7.45;;
59458;SDS011;45269;43.568;22.244;2023-07-31T05:17:51;8.60;;;7.25;;
59458;SDS011;45269;43.568;22.244;2023-07-31T05:20:16;7.45;;;6.63;;
59458;SDS011;45269;43.568;22.244;2023-07-31T05:22:41;7.07;;;6.38;;
59458;SDS011;45269;43.568;22.244;2023-07-31T05:25:07;7.30;;;6.63;;
59458;SDS011;45269;43.568;22.244;2023-07-31T05:27:32;7.75;;;6.95;;
59458;SDS011;45269;43.568;22.244;2023-07-31T05:29:58;7.00;;;6.40;;
59458;SDS011;45269;43.568;22.244;2023-07-31T05:32:23;7.85;;;7.07;;
59458;SDS011;45269;43.568;22.244;2023-07-31T05:34:50;7.63;;;6.75;;
59458;SDS011;45269;43.568;22.244;2023-07-31T05:37:16;7.35;;;6.75;;
59458;SDS011;45269;43.568;22.244;2023-07-31T05:39:41;9.55;;;6.20;;
59458;SDS011;45269;43.568;22.244;2023-07-31T05:42:06;7.18;;;6.53;;
59458;SDS011;45269;43.568;22.244;2023-07-31T05:44:32;9.38;;;6.53;;
59458;SDS011;45269;43.568;22.244;2023-07-31T05:46:57;7.95;;;6.80;;
59458;SDS011;45269;43.568;22.244;2023-07-31T05:49:22;8.95;;;6.35;;
59458;SDS011;45269;43.568;22.244;2023-07-31T05:51:48;7.43;;;6.85;;
59458;SDS011;45269;43.568;22.244;2023-07-31T05:54:13;7.35;;;6.72;;
59458;SDS011;45269;43.568;22.244;2023-07-31T05:56:38;6.72;;;6.10;;
59458;SDS011;45269;43.568;22.244;2023-07-31T05:59:04;7.28;;;6.50;;
59458;SDS011;45269;43.568;22.244;2023-07-31T06:01:30;6.43;;;5.82;;
59458;SDS011;45269;43.568;22.244;2023-07-31T06:03:55;6.05;;;5.55;;
59458;SDS011;45269;43.568;22.244;2023-07-31T06:06:20;6.93;;;5.25;;
59458;SDS011;45269;43.568;22.244;2023-07-31T06:08:46;6.00;;;5.38;;
59458;SDS011;45269;43.568;22.244;2023-07-31T06:11:11;6.35;;;4.50;;
59458;SDS011;45269;43.568;22.244;2023-07-31T06:13:36;5.53;;;5.03;;
59458;SDS011;45269;43.568;22.244;2023-07-31T06:16:02;5.40;;;4.95;;
59458;SDS011;45269;43.568;22.244;2023-07-31T06:18:31;5.93;;;5.28;;
59458;SDS011;45269;43.568;22.244;2023-07-31T06:20:56;5.50;;;5.00;;
59458;SDS011;45269;43.568;22.244;2023-07-31T06:23:21;5.15;;;4.60;;
59458;SDS011;45269;43.568;22.244;2023-07-31T06:25:47;5.40;;;4.90;;
59458;SDS011;45269;43.568;22.244;2023-07-31T06:28:12;4.35;;;3.67;;
59458;SDS011;45269;43.568;22.244;2023-07-31T06:30:37;4.18;;;3.88;;
59458;SDS011;45269;43.568;22.244;2023-07-31T06:33:03;4.35;;;3.63;;
59458;SDS011;45269;43.568;22.244;2023-07-31T06:35:28;3.80;;;3.50;;
59458;SDS011;45269;43.568;22.244;2023-07-31T06:37:53;4.72;;;3.60;;
59458;SDS011;45269;43.568;22.244;2023-07-31T06:40:19;3.70;;;3.20;;
59458;SDS011;45269;43.568;22.244;2023-07-31T06:42:44;4.40;;;4.00;;
59458;SDS011;45269;43.568;22.244;2023-07-31T06:45:10;3.88;;;3.58;;
59458;SDS011;45269;43.568;22.244;2023-07-31T06:47:35;3.85;;;3.55;;
59458;SDS011;45269;43.568;22.244;2023-07-31T06:50:00;4.07;;;3.78;;
59458;SDS011;45269;43.568;22.244;2023-07-31T06:52:26;4.38;;;3.45;;
59458;SDS011;45269;43.568;22.244;2023-07-31T06:55:04;4.50;;;4.10;;
59458;SDS011;45269;43.568;22.244;2023-07-31T06:57:42;4.43;;;4.03;;
59458;SDS011;45269;43.568;22.244;2023-07-31T07:00:08;4.93;;;4.00;;
59458;SDS011;45269;43.568;22.244;2023-07-31T07:02:33;4.50;;;3.63;;
59458;SDS011;45269;43.568;22.244;2023-07-31T07:04:59;4.63;;;4.05;;
59458;SDS011;45269;43.568;22.244;2023-07-31T07:07:24;3.40;;;3.13;;
59458;SDS011;45269;43.568;22.244;2023-07-31T07:09:49;4.10;;;3.80;;
59458;SDS011;45269;43.568;22.244;2023-07-31T07:12:15;4.00;;;3.70;;
59458;SDS011;45269;43.568;22.244;2023-07-31T07:14:40;4.95;;;3.63;;
59458;SDS011;45269;43.568;22.244;2023-07-31T07:17:05;4.13;;;3.83;;
59458;SDS011;45269;43.568;22.244;2023-07-31T07:19:31;3.97;;;3.67;;
59458;SDS011;45269;43.568;22.244;2023-07-31T07:21:56;4.40;;;4.00;;
59458;SDS011;45269;43.568;22.244;2023-07-31T07:24:21;4.68;;;4.28;;
59458;SDS011;45269;43.568;22.244;2023-07-31T07:26:47;4.00;;;3.70;;
59458;SDS011;45269;43.568;22.244;2023-07-31T07:29:12;4.32;;;3.92;;
59458;SDS011;45269;43.568;22.244;2023-07-31T07:31:38;3.80;;;3.50;;
59458;SDS011;45269;43.568;22.244;2023-07-31T07:34:03;3.80;;;3.50;;
59458;SDS011;45269;43.568;22.244;2023-07-31T07:36:28;4.38;;;4.07;;
59458;SDS011;45269;43.568;22.244;2023-07-31T07:38:54;4.60;;;4.20;;
59458;SDS011;45269;43.568;22.244;2023-07-31T07:41:19;5.10;;;4.70;;
59458;SDS011;45269;43.568;22.244;2023-07-31T07:43:44;5.40;;;5.00;;
59458;SDS011;45269;43.568;22.244;2023-07-31T07:46:10;6.55;;;5.95;;
59458;SDS011;45269;43.568;22.244;2023-07-31T07:48:35;7.35;;;6.65;;
59458;SDS011;45269;43.568;22.244;2023-07-31T07:51:00;7.18;;;6.60;;
59458;SDS011;45269;43.568;22.244;2023-07-31T07:53:26;7.30;;;6.75;;
59458;SDS011;45269;43.568;22.244;2023-07-31T07:55:51;7.50;;;6.90;;
59458;SDS011;45269;43.568;22.244;2023-07-31T07:58:16;8.38;;;7.65;;
59458;SDS011;45269;43.568;22.244;2023-07-31T08:00:42;9.15;;;8.15;;
59458;SDS011;45269;43.568;22.244;2023-07-31T08:03:13;9.00;;;8.20;;
59458;SDS011;45269;43.568;22.244;2023-07-31T08:05:38;10.68;;;9.60;;
59458;SDS011;45269;43.568;22.244;2023-07-31T08:08:03;10.13;;;9.23;;
59458;SDS011;45269;43.568;22.244;2023-07-31T08:10:29;9.63;;;8.93;;
59458;SDS011;45269;43.568;22.244;2023-07-31T08:12:54;10.23;;;9.32;;
59458;SDS011;45269;43.568;22.244;2023-07-31T08:15:19;10.82;;;9.82;;
59458;SDS011;45269;43.568;22.244;2023-07-31T08:17:45;9.88;;;8.88;;
59458;SDS011;45269;43.568;22.244;2023-07-31T08:20:10;10.23;;;9.43;;
59458;SDS011;45269;43.568;22.244;2023-07-31T08:22:36;10.23;;;9.43;;
59458;SDS011;45269;43.568;22.244;2023-07-31T08:25:01;11.20;;;10.30;;
59458;SDS011;45269;43.568;22.244;2023-07-31T08:27:26;13.23;;;12.23;;
59458;SDS011;45269;43.568;22.244;2023-07-31T08:29:52;17.30;;;15.90;;
59458;SDS011;45269;43.568;22.244;2023-07-31T08:32:17;19.20;;;17.50;;
59458;SDS011;45269;43.568;22.244;2023-07-31T08:34:43;19.70;;;18.15;;
59458;SDS011;45269;43.568;22.244;2023-07-31T08:37:08;20.33;;;18.63;;
59458;SDS011;45269;43.568;22.244;2023-07-31T08:39:33;19.45;;;17.95;;
59458;SDS011;45269;43.568;22.244;2023-07-31T08:41:59;18.25;;;16.52;;
59458;SDS011;45269;43.568;22.244;2023-07-31T08:44:25;16.67;;;15.38;;
59458;SDS011;45269;43.568;22.244;2023-07-31T08:46:50;15.55;;;14.35;;
59458;SDS011;45269;43.568;22.244;2023-07-31T08:49:16;15.88;;;14.68;;
59458;SDS011;45269;43.568;22.244;2023-07-31T08:51:42;15.40;;;14.20;;
59458;SDS011;45269;43.568;22.244;2023-07-31T08:54:08;15.13;;;13.93;;
59458;SDS011;45269;43.568;22.244;2023-07-31T08:56:33;13.45;;;12.45;;
59458;SDS011;45269;43.568;22.244;2023-07-31T08:59:00;12.80;;;11.88;;
59458;SDS011;45269;43.568;22.244;2023-07-31T09:01:27;11.68;;;10.68;;
59458;SDS011;45269;43.568;22.244;2023-07-31T09:03:54;12.20;;;11.30;;
59458;SDS011;45269;43.568;22.244;2023-07-31T09:06:20;11.30;;;10.40;;
59458;SDS011;45269;43.568;22.244;2023-07-31T09:08:45;10.32;;;9.52;;
59458;SDS011;45269;43.568;22.244;2023-07-31T09:11:11;10.32;;;9.43;;
59458;SDS011;45269;43.568;22.244;2023-07-31T09:13:37;9.43;;;8.73;;
59458;SDS011;45269;43.568;22.244;2023-07-31T09:16:04;8.90;;;8.23;;
59458;SDS011;45269;43.568;22.244;2023-07-31T09:18:30;9.30;;;8.50;;
59458;SDS011;45269;43.568;22.244;2023-07-31T09:21:04;9.63;;;8.93;;
59458;SDS011;45269;43.568;22.244;2023-07-31T09:23:40;9.38;;;8.68;;
59458;SDS011;45269;43.568;22.244;2023-07-31T09:26:06;9.77;;;9.07;;
59458;SDS011;45269;43.568;22.244;2023-07-31T09:28:31;9.80;;;9.07;;
59458;SDS011;45269;43.568;22.244;2023-07-31T09:30:56;9.30;;;8.60;;
59458;SDS011;45269;43.568;22.244;2023-07-31T09:33:22;8.43;;;7.78;;
59458;SDS011;45269;43.568;22.244;2023-07-31T09:35:47;8.90;;;8.18;;
59458;SDS011;45269;43.568;22.244;2023-07-31T09:38:16;8.50;;;7.90;;
59458;SDS011;45269;43.568;22.244;2023-07-31T09:40:43;8.30;;;7.70;;
59458;SDS011;45269;43.568;22.244;2023-07-31T09:43:09;7.22;;;6.72;;
59458;SDS011;45269;43.568;22.244;2023-07-31T09:45:37;7.53;;;7.03;;
59458;SDS011;45269;43.568;22.244;2023-07-31T09:48:03;7.63;;;7.07;;
59458;SDS011;45269;43.568;22.244;2023-07-31T09:50:29;6.32;;;5.93;;
59458;SDS011;45269;43.568;22.244;2023-07-31T09:52:55;6.50;;;5.80;;
59458;SDS011;45269;43.568;22.244;2023-07-31T09:55:20;7.38;;;6.63;;
59458;SDS011;45269;43.568;22.244;2023-07-31T09:57:46;6.93;;;6.32;;
59458;SDS011;45269;43.568;22.244;2023-07-31T10:00:12;6.88;;;6.38;;
59458;SDS011;45269;43.568;22.244;2023-07-31T10:02:38;7.00;;;6.50;;
59458;SDS011;45269;43.568;22.244;2023-07-31T10:05:04;6.57;;;6.07;;
59458;SDS011;45269;43.568;22.244;2023-07-31T10:07:30;6.93;;;6.32;;
59458;SDS011;45269;43.568;22.244;2023-07-31T10:09:59;6.10;;;5.60;;
59458;SDS011;45269;43.568;22.244;2023-07-31T10:14:50;9.23;;;5.63;;
59458;SDS011;45269;43.568;22.244;2023-07-31T10:17:17;5.95;;;5.45;;
59458;SDS011;45269;43.568;22.244;2023-07-31T10:19:43;4.78;;;4.47;;
59458;SDS011;45269;43.568;22.244;2023-07-31T10:22:09;4.03;;;3.55;;
59458;SDS011;45269;43.568;22.244;2023-07-31T10:24:35;3.45;;;3.22;;
59458;SDS011;45269;43.568;22.244;2023-07-31T10:27:01;2.88;;;2.67;;
59458;SDS011;45269;43.568;22.244;2023-07-31T10:29:28;2.80;;;2.33;;
59458;SDS011;45269;43.568;22.244;2023-07-31T10:31:55;4.05;;;3.53;;
59458;SDS011;45269;43.568;22.244;2023-07-31T10:34:21;5.22;;;4.70;;
59458;SDS011;45269;43.568;22.244;2023-07-31T10:36:46;6.30;;;5.80;;
59458;SDS011;45269;43.568;22.244;2023-07-31T10:41:55;5.05;;;4.70;;
59458;SDS011;45269;43.568;22.244;2023-07-31T10:44:21;5.15;;;4.75;;
59458;SDS011;45269;43.568;22.244;2023-07-31T10:46:46;5.15;;;4.68;;
59458;SDS011;45269;43.568;22.244;2023-07-31T10:49:12;5.05;;;4.63;;
59458;SDS011;45269;43.568;22.244;2023-07-31T10:51:46;6.20;;;4.18;;
59458;SDS011;45269;43.568;22.244;2023-07-31T10:54:13;4.60;;;4.20;;
59458;SDS011;45269;43.568;22.244;2023-07-31T10:56:39;4.10;;;3.75;;
59458;SDS011;45269;43.568;22.244;2023-07-31T10:59:04;4.55;;;3.10;;
59458;SDS011;45269;43.568;22.244;2023-07-31T11:02:04;3.58;;;3.38;;
59458;SDS011;45269;43.568;22.244;2023-07-31T11:04:26;3.50;;;3.20;;
59458;SDS011;45269;43.568;22.244;2023-07-31T11:06:55;3.95;;;3.38;;
59458;SDS011;45269;43.568;22.244;2023-07-31T11:09:21;3.92;;;3.40;;
59458;SDS011;45269;43.568;22.244;2023-07-31T11:11:47;3.50;;;3.20;;
59458;SDS011;45269;43.568;22.244;2023-07-31T11:14:13;3.33;;;3.13;;
59458;SDS011;45269;43.568;22.244;2023-07-31T11:16:39;4.88;;;3.13;;
59458;SDS011;45269;43.568;22.244;2023-07-31T11:19:08;3.33;;;3.03;;
59458;SDS011;45269;43.568;22.244;2023-07-31T11:21:33;3.03;;;2.83;;
59458;SDS011;45269;43.568;22.244;2023-07-31T11:23:58;3.38;;;3.10;;
59458;SDS011;45269;43.568;22.244;2023-07-31T11:26:24;3.22;;;2.92;;
59458;SDS011;45269;43.568;22.244;2023-07-31T11:28:49;2.83;;;2.63;;
59458;SDS011;45269;43.568;22.244;2023-07-31T11:31:15;2.83;;;2.63;;
59458;SDS011;45269;43.568;22.244;2023-07-31T11:33:41;3.15;;;2.50;;
59458;SDS011;45269;43.568;22.244;2023-07-31T11:36:06;2.78;;;2.58;;
59458;SDS011;45269;43.568;22.244;2023-07-31T11:38:32;2.72;;;2.53;;
59458;SDS011;45269;43.568;22.244;2023-07-31T11:40:59;3.45;;;2.30;;
59458;SDS011;45269;43.568;22.244;2023-07-31T11:43:24;2.53;;;2.33;;
59458;SDS011;45269;43.568;22.244;2023-07-31T11:45:50;3.05;;;2.10;;
59458;SDS011;45269;43.568;22.244;2023-07-31T11:48:26;2.40;;;2.20;;
59458;SDS011;45269;43.568;22.244;2023-07-31T11:50:52;2.50;;;2.30;;
59458;SDS011;45269;43.568;22.244;2023-07-31T11:53:19;4.63;;;2.00;;
59458;SDS011;45269;43.568;22.244;2023-07-31T11:55:46;2.17;;;1.98;;
59458;SDS011;45269;43.568;22.244;2023-07-31T11:58:11;2.20;;;2.00;;
59458;SDS011;45269;43.568;22.244;2023-07-31T12:00:38;1.65;;;1.55;;
59458;SDS011;45269;43.568;22.244;2023-07-31T12:03:03;2.20;;;2.00;;
59458;SDS011;45269;43.568;22.244;2023-07-31T12:05:29;2.13;;;2.03;;
59458;SDS011;45269;43.568;22.244;2023-07-31T12:07:55;4.25;;;2.10;;
59458;SDS011;45269;43.568;22.244;2023-07-31T12:10:24;2.50;;;2.05;;
59458;SDS011;45269;43.568;22.244;2023-07-31T12:15:15;2.30;;;2.10;;
59458;SDS011;45269;43.568;22.244;2023-07-31T12:17:40;2.00;;;1.90;;
59458;SDS011;45269;43.568;22.244;2023-07-31T12:20:06;1.80;;;1.70;;
59458;SDS011;45269;43.568;22.244;2023-07-31T12:22:32;2.08;;;1.98;;
59458;SDS011;45269;43.568;22.244;2023-07-31T12:24:57;1.95;;;1.80;;
59458;SDS011;45269;43.568;22.244;2023-07-31T12:27:23;2.03;;;1.83;;
59458;SDS011;45269;43.568;22.244;2023-07-31T12:29:50;2.88;;;1.90;;
59458;SDS011;45269;43.568;22.244;2023-07-31T12:32:24;2.67;;;1.90;;
59458;SDS011;45269;43.568;22.244;2023-07-31T12:34:50;1.73;;;1.63;;
59458;SDS011;45269;43.568;22.244;2023-07-31T12:37:15;2.45;;;1.88;;
59458;SDS011;45269;43.568;22.244;2023-07-31T12:39:41;2.03;;;1.90;;
59458;SDS011;45269;43.568;22.244;2023-07-31T12:42:06;1.80;;;1.70;;
59458;SDS011;45269;43.568;22.244;2023-07-31T12:44:31;2.55;;;1.88;;
59458;SDS011;45269;43.568;22.244;2023-07-31T12:46:57;3.22;;;1.73;;
59458;SDS011;45269;43.568;22.244;2023-07-31T12:49:22;2.00;;;1.77;;
59458;SDS011;45269;43.568;22.244;2023-07-31T12:51:48;2.25;;;1.85;;
59458;SDS011;45269;43.568;22.244;2023-07-31T12:54:13;1.83;;;1.65;;
59458;SDS011;45269;43.568;22.244;2023-07-31T12:56:39;1.92;;;1.83;;
59458;SDS011;45269;43.568;22.244;2023-07-31T12:59:05;1.95;;;1.83;;
59458;SDS011;45269;43.568;22.244;2023-07-31T13:01:31;1.60;;;1.50;;
59458;SDS011;45269;43.568;22.244;2023-07-31T13:03:56;1.95;;;1.83;;
59458;SDS011;45269;43.568;22.244;2023-07-31T13:06:22;1.70;;;1.60;;
59458;SDS011;45269;43.568;22.244;2023-07-31T13:08:47;1.92;;;1.80;;
59458;SDS011;45269;43.568;22.244;2023-07-31T13:11:13;2.05;;;1.85;;
59458;SDS011;45269;43.568;22.244;2023-07-31T13:13:38;3.20;;;1.90;;
59458;SDS011;45269;43.568;22.244;2023-07-31T13:16:03;3.55;;;1.90;;
59458;SDS011;45269;43.568;22.244;2023-07-31T13:18:29;1.88;;;1.77;;
59458;SDS011;45269;43.568;22.244;2023-07-31T13:20:55;3.28;;;1.67;;
59458;SDS011;45269;43.568;22.244;2023-07-31T13:23:20;2.20;;;2.00;;
59458;SDS011;45269;43.568;22.244;2023-07-31T13:25:46;1.83;;;1.70;;
59458;SDS011;45269;43.568;22.244;2023-07-31T13:28:11;1.60;;;1.50;;
59458;SDS011;45269;43.568;22.244;2023-07-31T13:30:36;2.90;;;1.70;;
59458;SDS011;45269;43.568;22.244;2023-07-31T13:33:02;2.05;;;1.50;;
59458;SDS011;45269;43.568;22.244;2023-07-31T13:35:27;2.00;;;1.80;;
59458;SDS011;45269;43.568;22.244;2023-07-31T13:37:53;2.17;;;1.70;;
59458;SDS011;45269;43.568;22.244;2023-07-31T13:40:19;2.97;;;1.75;;
59458;SDS011;45269;43.568;22.244;2023-07-31T13:42:44;1.80;;;1.70;;
59458;SDS011;45269;43.568;22.244;2023-07-31T13:45:11;1.90;;;1.50;;
59458;SDS011;45269;43.568;22.244;2023-07-31T13:47:36;3.78;;;1.58;;
59458;SDS011;45269;43.568;22.244;2023-07-31T13:50:02;1.73;;;1.63;;
59458;SDS011;45269;43.568;22.244;2023-07-31T13:52:29;2.55;;;1.70;;
59458;SDS011;45269;43.568;22.244;2023-07-31T13:54:54;1.80;;;1.70;;
59458;SDS011;45269;43.568;22.244;2023-07-31T13:57:19;2.95;;;1.77;;
59458;SDS011;45269;43.568;22.244;2023-07-31T13:59:45;1.98;;;1.40;;
59458;SDS011;45269;43.568;22.244;2023-07-31T14:02:10;1.60;;;1.40;;
59458;SDS011;45269;43.568;22.244;2023-07-31T14:04:37;1.50;;;1.40;;
59458;SDS011;45269;43.568;22.244;2023-07-31T14:07:02;1.73;;;1.50;;
59458;SDS011;45269;43.568;22.244;2023-07-31T14:09:28;1.77;;;1.52;;
59458;SDS011;45269;43.568;22.244;2023-07-31T14:11:53;2.17;;;1.92;;
59458;SDS011;45269;43.568;22.244;2023-07-31T14:14:19;1.63;;;1.52;;
59458;SDS011;45269;43.568;22.244;2023-07-31T14:16:44;2.00;;;1.80;;
59458;SDS011;45269;43.568;22.244;2023-07-31T14:19:10;1.70;;;1.50;;
59458;SDS011;45269;43.568;22.244;2023-07-31T14:21:35;1.55;;;1.45;;
59458;SDS011;45269;43.568;22.244;2023-07-31T14:24:00;1.67;;;1.58;;
59458;SDS011;45269;43.568;22.244;2023-07-31T14:26:26;1.60;;;1.50;;
59458;SDS011;45269;43.568;22.244;2023-07-31T14:28:51;1.42;;;1.33;;
59458;SDS011;45269;43.568;22.244;2023-07-31T14:31:16;3.60;;;1.70;;